createdAt,value
2023-01-19T00:01:13.297Z,93.37
2023-01-19T00:04:16.929Z,92.89
2023-01-19T00:07:23.469Z,93.42
2023-01-19T00:10:28.328Z,93.05
2023-01-19T00:13:31.041Z,92.53
2023-01-19T00:16:33.749Z,92.75
2023-01-19T00:19:38.708Z,92.79
2023-01-19T00:22:42.730Z,92.45
2023-01-19T00:25:45.432Z,92.80
2023-01-19T00:28:52.040Z,92.73
2023-01-19T00:31:54.793Z,92.51
2023-01-19T00:35:01.948Z,92.36
2023-01-19T00:38:06.716Z,92.41
2023-01-19T00:41:13.974Z,92.38
2023-01-19T00:44:16.741Z,92.59
2023-01-19T00:47:22.629Z,92.79
2023-01-19T00:50:26.493Z,92.78
2023-01-19T00:53:42.576Z,92.96
2023-01-19T00:56:49.716Z,93.29
2023-01-19T00:59:53.534Z,93.73
2023-01-19T01:03:05.162Z,94.00
2023-01-19T01:06:11.793Z,94.35
2023-01-19T01:09:18.753Z,94.88
2023-01-19T01:12:21.397Z,94.64
2023-01-19T01:15:26.751Z,94.35
2023-01-19T01:18:29.947Z,93.66
2023-01-19T01:21:34.536Z,93.05
2023-01-19T01:24:41.783Z,93.10
2023-01-19T01:27:45.754Z,93.70
2023-01-19T01:30:52.904Z,94.36
2023-01-19T01:33:58.716Z,95.04
2023-01-19T01:37:02.006Z,95.54
2023-01-19T01:40:12.670Z,95.80
2023-01-19T01:43:19.337Z,95.82
2023-01-19T01:46:26.509Z,96.11
2023-01-19T01:49:38.950Z,96.37
2023-01-19T01:53:06.832Z,96.56
2023-01-19T01:56:16.242Z,96.54
2023-01-19T01:59:26.678Z,96.25
2023-01-19T02:02:56.928Z,96.12
2023-01-19T02:06:02.973Z,94.67
2023-01-19T02:09:29.746Z,94.61
2023-01-19T02:12:55.797Z,94.11
2023-01-19T02:16:03.014Z,93.83
2023-01-19T02:19:09.692Z,94.24
2023-01-19T02:22:19.477Z,94.73
2023-01-19T02:25:25.227Z,95.39
2023-01-19T02:28:31.576Z,96.02
2023-01-19T02:31:37.221Z,96.11
2023-01-19T02:34:46.027Z,96.22
2023-01-19T02:37:51.616Z,96.88
2023-01-19T02:40:57.923Z,97.19
2023-01-19T02:44:02.111Z,97.16
2023-01-19T02:47:05.591Z,97.43
2023-01-19T02:50:37.967Z,97.42
2023-01-19T02:53:59.791Z,98.39
2023-01-19T02:57:36.105Z,97.99
2023-01-19T03:00:51.025Z,98.09
2023-01-19T03:04:01.019Z,98.75
2023-01-19T03:07:12.615Z,98.83
2023-01-19T03:10:21.512Z,98.37
2023-01-19T03:13:33.971Z,97.58
2023-01-19T03:16:42.119Z,97.40
2023-01-19T03:19:48.083Z,97.36
2023-01-19T03:22:55.111Z,97.67
2023-01-19T03:26:00.364Z,97.60
2023-01-19T03:29:06.885Z,97.45
2023-01-19T03:32:17.298Z,96.50
2023-01-19T03:35:22.879Z,96.11
2023-01-19T03:38:36.901Z,96.02
2023-01-19T03:41:42.420Z,94.62
2023-01-19T03:44:50.495Z,94.08
2023-01-19T03:47:53.529Z,93.86
2023-01-19T03:50:56.735Z,93.88
2023-01-19T03:54:01.989Z,94.07
2023-01-19T03:57:07.778Z,94.11
2023-01-19T04:00:13.682Z,94.91
2023-01-19T04:03:17.604Z,94.86
2023-01-19T04:06:22.076Z,95.07
2023-01-19T04:09:30.995Z,95.36
2023-01-19T04:12:35.458Z,94.83
2023-01-19T04:15:39.811Z,95.20
2023-01-19T04:18:44.494Z,94.84
2023-01-19T04:21:50.741Z,94.68
2023-01-19T04:24:53.439Z,94.84
2023-01-19T04:27:57.975Z,95.27
2023-01-19T04:31:02.360Z,95.60
2023-01-19T04:34:05.081Z,95.52
2023-01-19T04:37:08.504Z,95.58
2023-01-19T04:40:12.395Z,95.59
2023-01-19T04:43:15.526Z,95.69
2023-01-19T04:46:19.548Z,94.78
2023-01-19T04:49:24.624Z,94.79
2023-01-19T04:52:34.858Z,94.44
2023-01-19T04:55:40.516Z,95.23
2023-01-19T04:58:43.203Z,95.86
2023-01-19T05:01:47.247Z,96.09
2023-01-19T05:04:49.970Z,96.42
2023-01-19T05:07:52.579Z,96.51
2023-01-19T05:10:58.403Z,95.99
2023-01-19T05:14:01.050Z,95.86
2023-01-19T05:17:05.102Z,95.98
2023-01-19T05:20:11.164Z,96.21
2023-01-19T05:23:19.976Z,96.29
2023-01-19T05:26:22.771Z,96.89
2023-01-19T05:29:28.471Z,97.16
2023-01-19T05:32:32.572Z,97.59
2023-01-19T05:35:37.411Z,97.67
2023-01-19T05:38:44.148Z,97.99
2023-01-19T05:41:49.965Z,98.30
2023-01-19T05:44:52.872Z,98.00
2023-01-19T05:47:59.898Z,98.19
2023-01-19T05:51:10.382Z,97.75
2023-01-19T05:54:15.091Z,98.04
2023-01-19T05:57:18.006Z,97.71
2023-01-19T06:00:24.523Z,98.07
2023-01-19T06:03:29.903Z,97.57
2023-01-19T06:06:41.820Z,98.31
2023-01-19T06:09:44.435Z,98.82
2023-01-19T06:12:50.342Z,99.06
2023-01-19T06:15:59.916Z,98.54
2023-01-19T06:19:11.611Z,97.87
2023-01-19T06:22:14.304Z,97.81
2023-01-19T06:25:16.999Z,97.52
2023-01-19T06:28:19.687Z,97.16
2023-01-19T06:31:22.613Z,97.24
2023-01-19T06:34:28.751Z,97.54
2023-01-19T06:37:35.086Z,98.27
2023-01-19T06:40:38.591Z,98.60
2023-01-19T06:43:41.259Z,99.12
2023-01-19T06:46:50.200Z,98.53
2023-01-19T06:49:54.224Z,97.16
2023-01-19T06:52:56.990Z,96.52
2023-01-19T06:56:00.984Z,97.28
2023-01-19T06:59:04.143Z,97.49
2023-01-19T07:02:26.510Z,97.30
2023-01-19T07:05:32.065Z,97.74
2023-01-19T07:08:38.553Z,97.55
2023-01-19T07:11:41.914Z,98.03
2023-01-19T07:14:44.858Z,98.36
2023-01-19T07:17:47.929Z,98.58
2023-01-19T07:20:51.983Z,99.03
2023-01-19T07:23:55.023Z,99.31
2023-01-19T07:26:57.751Z,99.66
2023-01-19T07:30:01.113Z,100.00
2023-01-19T07:33:06.040Z,100.00
2023-01-19T07:36:10.972Z,100.00
2023-01-19T07:39:13.898Z,99.60
2023-01-19T07:42:17.180Z,99.87
2023-01-19T07:45:21.641Z,99.47
2023-01-19T07:48:24.303Z,99.74
2023-01-19T07:51:28.331Z,99.32
2023-01-19T07:54:31.153Z,99.51
2023-01-19T07:57:33.998Z,98.97
2023-01-19T08:00:37.962Z,98.73
2023-01-19T08:03:41.220Z,98.39
2023-01-19T08:06:47.188Z,97.47
2023-01-19T08:09:49.892Z,97.73
2023-01-19T08:12:52.928Z,97.95
2023-01-19T08:15:55.801Z,97.86
2023-01-19T08:18:58.539Z,98.13
2023-01-19T08:22:05.080Z,97.89
2023-01-19T08:25:09.415Z,97.92
2023-01-19T08:28:14.401Z,98.00
2023-01-19T08:31:21.028Z,98.09
2023-01-19T08:34:25.731Z,98.04
2023-01-19T08:37:37.402Z,98.53
2023-01-19T08:40:41.970Z,98.68
2023-01-19T08:43:53.888Z,98.65
2023-01-19T08:46:56.610Z,98.91
2023-01-19T08:49:59.277Z,98.47
2023-01-19T08:53:06.558Z,98.26
2023-01-19T08:56:22.502Z,98.83
2023-01-19T08:59:25.144Z,96.92
2023-01-19T09:02:31.318Z,97.42
2023-01-19T09:05:37.261Z,97.39
2023-01-19T09:08:42.587Z,96.86
2023-01-19T09:11:45.299Z,96.54
2023-01-19T09:14:47.983Z,96.32
2023-01-19T09:17:52.841Z,95.70
2023-01-19T09:20:58.366Z,95.43
2023-01-19T09:24:06.061Z,95.40
2023-01-19T09:27:09.174Z,95.32
2023-01-19T09:30:13.092Z,95.15
2023-01-19T09:33:18.582Z,94.20
2023-01-19T09:36:21.224Z,93.65
2023-01-19T09:39:26.417Z,93.48
2023-01-19T09:42:38.171Z,93.38
2023-01-19T09:45:46.972Z,93.45
2023-01-19T09:48:52.863Z,93.44
2023-01-19T09:51:55.635Z,93.17
2023-01-19T09:54:59.932Z,92.76
2023-01-19T09:58:05.699Z,92.20
2023-01-19T10:01:21.249Z,92.08
2023-01-19T10:04:37.809Z,91.51
2023-01-19T10:07:54.238Z,91.19
2023-01-19T10:10:59.630Z,90.38
2023-01-19T10:14:04.642Z,89.80
2023-01-19T10:17:21.369Z,89.48
2023-01-19T10:20:34.414Z,89.31
2023-01-19T10:23:42.187Z,88.67
2023-01-19T10:26:50.070Z,88.87
2023-01-19T10:29:52.849Z,88.66
2023-01-19T10:33:02.055Z,88.41
2023-01-19T10:36:16.191Z,88.01
2023-01-19T10:39:22.265Z,87.83
2023-01-19T10:42:29.969Z,87.66
2023-01-19T10:45:34.882Z,87.47
2023-01-19T10:48:42.892Z,87.01
2023-01-19T10:51:49.023Z,86.27
2023-01-19T10:54:51.952Z,85.99
2023-01-19T10:57:57.275Z,85.93
2023-01-19T11:01:14.353Z,85.54
2023-01-19T11:04:22.435Z,84.97
2023-01-19T11:07:29.973Z,84.72
2023-01-19T11:10:33.401Z,84.18
2023-01-19T11:13:40.833Z,83.42
2023-01-19T11:16:49.376Z,82.58
2023-01-19T11:20:02.052Z,81.89
2023-01-19T11:23:06.525Z,81.64
2023-01-19T11:26:10.679Z,81.39
2023-01-19T11:29:20.947Z,81.33
2023-01-19T11:32:25.098Z,80.41
2023-01-19T11:35:37.311Z,80.09
2023-01-19T11:38:44.236Z,80.06
2023-01-19T11:41:51.805Z,79.64
2023-01-19T11:45:05.205Z,79.72
2023-01-19T11:48:16.772Z,79.36
2023-01-19T11:51:22.593Z,79.62
2023-01-19T11:54:32.499Z,79.29
2023-01-19T11:57:39.962Z,78.00
2023-01-19T12:00:47.327Z,78.76
2023-01-19T12:03:57.957Z,79.11
2023-01-19T12:07:07.469Z,79.73
2023-01-19T12:10:26.073Z,79.86
2023-01-19T12:13:30.559Z,79.05
2023-01-19T12:16:38.761Z,79.38
2023-01-19T12:19:47.317Z,79.40
2023-01-19T12:22:59.796Z,79.34
2023-01-19T12:26:37.366Z,79.47
2023-01-19T12:29:41.393Z,78.93
2023-01-19T12:32:48.756Z,78.97
2023-01-19T12:35:56.020Z,78.90
2023-01-19T12:39:03.746Z,79.13
2023-01-19T12:42:13.666Z,78.78
2023-01-19T12:45:19.574Z,78.69
2023-01-19T12:48:28.433Z,78.50
2023-01-19T12:51:31.271Z,78.77
2023-01-19T12:54:36.453Z,79.19
2023-01-19T12:57:42.179Z,79.00
2023-01-19T13:00:46.155Z,79.03
2023-01-19T13:04:09.361Z,79.45
2023-01-19T13:07:17.835Z,79.47
2023-01-19T13:10:57.341Z,79.70
2023-01-19T13:14:35.830Z,79.82
2023-01-19T13:17:49.919Z,79.73
2023-01-19T13:20:58.096Z,80.13
2023-01-19T13:24:03.121Z,80.01
2023-01-19T13:27:06.109Z,80.02
2023-01-19T13:30:13.340Z,80.17
2023-01-19T13:33:21.025Z,80.17
2023-01-19T13:36:30.768Z,80.13
2023-01-19T13:39:37.671Z,80.63
2023-01-19T13:42:42.785Z,80.84
2023-01-19T13:45:51.715Z,80.75
2023-01-19T13:48:58.695Z,81.00
2023-01-19T13:52:14.429Z,81.04
2023-01-19T13:55:18.761Z,81.45
2023-01-19T13:58:23.432Z,81.25
2023-01-19T14:01:29.350Z,81.53
2023-01-19T14:04:36.238Z,81.32
2023-01-19T14:07:40.364Z,81.42
2023-01-19T14:10:45.916Z,81.34
2023-01-19T14:13:48.640Z,80.88
2023-01-19T14:16:51.426Z,80.46
2023-01-19T14:19:55.555Z,80.37
2023-01-19T14:23:02.088Z,79.80
2023-01-19T14:26:05.059Z,79.92
2023-01-19T14:29:26.037Z,79.87
2023-01-19T14:32:29.758Z,79.72
2023-01-19T14:35:34.624Z,79.49
2023-01-19T14:38:39.479Z,79.65
2023-01-19T14:41:52.356Z,79.28
2023-01-19T14:44:57.357Z,79.10
2023-01-19T14:48:03.414Z,78.93
2023-01-19T14:51:06.732Z,79.18
2023-01-19T14:54:18.756Z,79.03
2023-01-19T14:57:24.918Z,79.12
2023-01-19T15:00:27.945Z,79.34
2023-01-19T15:03:44.671Z,79.45
2023-01-19T15:06:48.443Z,79.44
2023-01-19T15:09:52.942Z,79.45
2023-01-19T15:12:56.241Z,79.44
2023-01-19T15:15:59.224Z,80.02
2023-01-19T15:19:02.061Z,80.09
2023-01-19T15:22:11.954Z,80.07
2023-01-19T15:25:18.393Z,80.66
2023-01-19T15:28:21.411Z,80.84
2023-01-19T15:31:26.507Z,81.05
2023-01-19T15:34:32.306Z,81.23
2023-01-19T15:37:36.364Z,81.62
2023-01-19T15:40:40.442Z,81.90
2023-01-19T15:43:43.302Z,82.21
2023-01-19T15:46:45.913Z,82.23
2023-01-19T15:49:48.614Z,82.71
2023-01-19T15:52:51.399Z,83.15
2023-01-19T15:55:56.888Z,83.18
2023-01-19T15:58:59.893Z,83.25
2023-01-19T16:02:03.748Z,83.46
2023-01-19T16:05:18.008Z,83.54
2023-01-19T16:08:22.060Z,83.94
2023-01-19T16:11:26.998Z,84.00
2023-01-19T16:14:29.841Z,84.33
2023-01-19T16:17:34.735Z,84.34
2023-01-19T16:20:37.566Z,84.77
2023-01-19T16:23:40.327Z,84.56
2023-01-19T16:26:44.327Z,84.52
2023-01-19T16:29:48.830Z,84.91
2023-01-19T16:32:51.561Z,84.77
2023-01-19T16:35:54.379Z,84.50
2023-01-19T16:39:01.831Z,84.87
2023-01-19T16:42:06.092Z,85.01
2023-01-19T16:45:09.429Z,85.48
2023-01-19T16:48:12.125Z,85.31
2023-01-19T16:51:14.858Z,85.47
2023-01-19T16:54:20.858Z,85.81
2023-01-19T16:57:25.046Z,86.11
2023-01-19T17:00:27.728Z,86.37
2023-01-19T17:03:32.710Z,86.31
2023-01-19T17:06:35.408Z,86.12
2023-01-19T17:09:38.319Z,86.17
2023-01-19T17:12:46.352Z,86.46
2023-01-19T17:15:49.110Z,86.66
2023-01-19T17:18:52.042Z,86.41
2023-01-19T17:21:54.739Z,86.66
2023-01-19T17:24:57.368Z,86.66
2023-01-19T17:28:02.029Z,86.91
2023-01-19T17:31:06.438Z,86.71
2023-01-19T17:34:09.814Z,86.62
2023-01-19T17:37:12.447Z,86.79
2023-01-19T17:40:15.310Z,86.70
2023-01-19T17:43:19.316Z,86.78
2023-01-19T17:46:23.989Z,86.87
2023-01-19T17:49:26.702Z,86.77
2023-01-19T17:52:29.342Z,86.98
2023-01-19T17:55:33.954Z,86.98
2023-01-19T17:58:38.485Z,87.07
2023-01-19T18:01:42.886Z,87.24
2023-01-19T18:04:46.155Z,87.05
2023-01-19T18:07:49.006Z,87.02
2023-01-19T18:10:55.355Z,87.30
2023-01-19T18:14:00.169Z,87.36
2023-01-19T18:17:03.780Z,87.45
2023-01-19T18:20:07.711Z,87.51
2023-01-19T18:23:10.385Z,87.45
2023-01-19T18:26:15.639Z,87.78
2023-01-19T18:29:20.546Z,87.38
2023-01-19T18:32:29.295Z,87.46
2023-01-19T18:35:32.042Z,87.62
2023-01-19T18:38:35.374Z,88.02
2023-01-19T18:41:41.748Z,88.47
2023-01-19T18:44:45.770Z,88.63
2023-01-19T18:47:48.483Z,88.84
2023-01-19T18:50:51.385Z,89.03
2023-01-19T18:53:54.199Z,89.04
2023-01-19T18:56:56.992Z,89.05
2023-01-19T19:00:01.093Z,89.25
2023-01-19T19:03:03.789Z,89.49
2023-01-19T19:06:06.839Z,89.53
2023-01-19T19:09:10.318Z,89.44
2023-01-19T19:12:13.225Z,89.48
2023-01-19T19:15:17.697Z,89.29
2023-01-19T19:18:20.586Z,89.43
2023-01-19T19:21:25.389Z,89.49
2023-01-19T19:24:28.155Z,89.39
2023-01-19T19:27:30.823Z,89.44
2023-01-19T19:30:37.701Z,89.43
2023-01-19T19:33:41.605Z,89.67
2023-01-19T19:36:44.299Z,89.28
2023-01-19T19:39:48.594Z,89.22
2023-01-19T19:42:51.440Z,89.25
2023-01-19T19:45:59.879Z,89.11
2023-01-19T19:49:03.048Z,89.30
2023-01-19T19:52:06.064Z,89.45
2023-01-19T19:55:10.587Z,90.05
2023-01-19T19:58:13.277Z,90.05
2023-01-19T20:01:19.278Z,90.03
2023-01-19T20:04:23.792Z,90.03
2023-01-19T20:07:26.598Z,90.08
2023-01-19T20:10:30.025Z,90.29
2023-01-19T20:13:33.072Z,90.65
2023-01-19T20:16:37.623Z,90.57
2023-01-19T20:19:40.525Z,90.10
2023-01-19T20:22:43.314Z,90.05
2023-01-19T20:25:46.394Z,90.13
2023-01-19T20:28:49.385Z,90.28
2023-01-19T20:31:55.542Z,90.23
2023-01-19T20:34:58.184Z,90.47
2023-01-19T20:38:00.915Z,90.47
2023-01-19T20:41:03.686Z,90.50
2023-01-19T20:44:06.317Z,90.67
2023-01-19T20:47:10.400Z,90.48
2023-01-19T20:50:13.623Z,90.70
2023-01-19T20:53:16.961Z,90.35
2023-01-19T20:56:19.604Z,90.56
2023-01-19T20:59:23.011Z,90.68
2023-01-19T21:02:28.584Z,90.24
2023-01-19T21:05:31.309Z,90.27
2023-01-19T21:08:34.213Z,90.42
2023-01-19T21:11:37.802Z,90.48
2023-01-19T21:14:42.354Z,90.66
2023-01-19T21:17:46.407Z,90.59
2023-01-19T21:20:49.222Z,90.73
2023-01-19T21:23:52.305Z,90.68
2023-01-19T21:26:54.953Z,91.02
2023-01-19T21:29:58.629Z,91.21
2023-01-19T21:33:05.101Z,91.17
2023-01-19T21:36:09.757Z,91.44
2023-01-19T21:39:12.529Z,91.60
2023-01-19T21:42:15.251Z,91.54
2023-01-19T21:45:17.954Z,91.60
2023-01-19T21:48:22.051Z,91.94
2023-01-19T21:51:24.829Z,91.60
2023-01-19T21:54:27.675Z,91.98
2023-01-19T21:57:30.315Z,92.05
2023-01-19T22:00:33.000Z,91.83
2023-01-19T22:03:37.217Z,92.13
2023-01-19T22:06:40.139Z,92.09
2023-01-19T22:09:42.840Z,91.74
2023-01-19T22:12:46.014Z,92.15
2023-01-19T22:15:48.635Z,92.13
2023-01-19T22:18:56.432Z,92.26
2023-01-19T22:21:59.074Z,92.09
2023-01-19T22:25:02.426Z,92.11
2023-01-19T22:28:05.107Z,91.88
2023-01-19T22:31:09.869Z,92.01
2023-01-19T22:34:15.789Z,92.08
2023-01-19T22:37:19.013Z,92.05
2023-01-19T22:40:21.996Z,92.09
2023-01-19T22:43:24.713Z,91.77
2023-01-19T22:46:29.448Z,91.51
2023-01-19T22:49:33.508Z,91.42
2023-01-19T22:52:36.185Z,91.80
2023-01-19T22:55:38.911Z,91.67
2023-01-19T22:58:44.087Z,91.68
2023-01-19T23:01:47.229Z,91.33
2023-01-19T23:04:51.402Z,91.78
2023-01-19T23:07:54.046Z,91.49
2023-01-19T23:10:56.687Z,91.49
2023-01-19T23:14:00.097Z,91.76
2023-01-19T23:17:03.673Z,91.59
2023-01-19T23:20:09.514Z,91.67
2023-01-19T23:23:12.244Z,91.46
2023-01-19T23:26:16.938Z,91.47
2023-01-19T23:29:19.792Z,91.60
2023-01-19T23:32:22.477Z,91.81
2023-01-19T23:35:26.503Z,91.51
2023-01-19T23:38:29.195Z,91.62
2023-01-19T23:41:34.449Z,91.41
2023-01-19T23:44:41.553Z,91.70
2023-01-19T23:47:51.405Z,91.77
2023-01-19T23:50:55.415Z,91.53
2023-01-19T23:54:03.383Z,91.71
2023-01-19T23:57:06.089Z,91.73
